Time;durP1;ratioP1;P1;durP2;ratioP2;P2;SDS_P1;SDS_P2;PMS_P1;PMS_P2;Temp;Humidity;BMP_temperature;BMP_pressure;BME280_temperature;BME280_humidity;BME280_pressure;Samples;Min_cycle;Max_cycle;Signal;HPM_P1;HPM_P2
2023/03/10 00:02:19;;;;;;;9.80;4.35;;;3.40;99.90;;;;;;4877341;29;20030;-42
2023/03/10 00:04:49;;;;;;;6.47;3.83;;;3.50;99.90;;;;;;4876970;29;20112;-42
2023/03/10 00:07:15;;;;;;;7.68;3.92;;;3.60;99.90;;;;;;4878945;29;20085;-41
2023/03/10 00:09:41;;;;;;;6.22;4.03;;;3.50;99.90;;;;;;4878503;29;20029;-37
2023/03/10 00:12:07;;;;;;;6.28;3.53;;;3.60;99.90;;;;;;4877645;29;20029;-43
2023/03/10 00:14:33;;;;;;;7.13;3.28;;;3.60;99.90;;;;;;4877487;29;20549;-41
2023/03/10 00:16:58;;;;;;;6.22;3.72;;;3.60;99.90;;;;;;4876672;29;20113;-43
2023/03/10 00:19:25;;;;;;;6.28;3.63;;;3.60;99.90;;;;;;4877802;29;20040;-39
2023/03/10 00:21:51;;;;;;;8.32;3.80;;;3.60;99.90;;;;;;4870593;29;20025;-36
2023/03/10 00:24:17;;;;;;;4.50;3.30;;;3.60;99.90;;;;;;4877968;29;20080;-38
2023/03/10 00:26:44;;;;;;;9.27;4.10;;;3.60;99.90;;;;;;4875965;29;20051;-38
2023/03/10 00:29:11;;;;;;;7.13;4.18;;;3.60;99.90;;;;;;4874804;29;20426;-33
2023/03/10 00:31:36;;;;;;;7.50;4.22;;;3.60;99.90;;;;;;4874665;29;20417;-38
2023/03/10 00:34:03;;;;;;;4.72;3.30;;;3.60;99.90;;;;;;4877343;29;20021;-38
2023/03/10 00:36:31;;;;;;;6.35;3.25;;;3.70;99.90;;;;;;4877633;29;20146;-38
2023/03/10 00:38:59;;;;;;;5.13;3.33;;;3.60;99.90;;;;;;4877800;29;20502;-39
2023/03/10 00:41:29;;;;;;;6.45;3.80;;;3.60;99.90;;;;;;4875786;29;20029;-34
2023/03/10 00:43:56;;;;;;;5.97;2.83;;;3.60;99.90;;;;;;4876477;29;20036;-38
2023/03/10 00:46:22;;;;;;;4.78;3.13;;;3.60;99.90;;;;;;4873464;29;20029;-37
2023/03/10 00:48:48;;;;;;;5.63;3.33;;;3.70;99.90;;;;;;4877055;29;20037;-39
2023/03/10 00:51:14;;;;;;;5.20;3.42;;;3.60;99.90;;;;;;4878004;29;20045;-34
2023/03/10 00:53:40;;;;;;;5.70;3.05;;;3.50;99.90;;;;;;4879334;29;20025;-34
2023/03/10 00:56:16;;;;;;;4.07;3.03;;;3.70;99.90;;;;;;4878407;29;20109;-37
2023/03/10 00:58:43;;;;;;;5.70;3.75;;;3.60;99.90;;;;;;4870746;29;20028;-39
2023/03/10 01:01:14;;;;;;;6.90;4.07;;;3.60;99.90;;;;;;4879460;29;20032;-36
2023/03/10 01:03:40;;;;;;;6.93;3.50;;;3.60;99.90;;;;;;4881226;29;20040;-31
2023/03/10 01:06:06;;;;;;;4.75;3.67;;;3.60;99.90;;;;;;4881811;29;20029;-37
2023/03/10 01:08:32;;;;;;;6.13;3.28;;;3.60;99.90;;;;;;4878448;29;20029;-36
2023/03/10 01:10:57;;;;;;;5.53;3.22;;;3.60;99.90;;;;;;4879420;29;20036;-37
2023/03/10 01:13:23;;;;;;;5.78;3.40;;;3.50;99.90;;;;;;4879471;29;20044;-37
2023/03/10 01:15:49;;;;;;;7.63;3.45;;;3.50;99.90;;;;;;4881496;29;20073;-34
2023/03/10 01:18:16;;;;;;;7.05;3.53;;;3.50;99.90;;;;;;4880672;29;20028;-38
2023/03/10 01:20:42;;;;;;;4.72;3.28;;;3.50;99.90;;;;;;4880644;29;20025;-36
2023/03/10 01:23:20;;;;;;;4.03;3.08;;;3.40;99.90;;;;;;4879990;29;20478;-36
2023/03/10 01:25:46;;;;;;;4.15;2.90;;;3.50;99.90;;;;;;4881542;29;20100;-37
2023/03/10 01:28:11;;;;;;;4.45;3.00;;;3.50;99.90;;;;;;4888436;29;20545;-38
2023/03/10 01:30:38;;;;;;;4.25;3.05;;;3.60;99.90;;;;;;4880595;29;20044;-41
2023/03/10 01:33:04;;;;;;;4.60;2.67;;;3.60;99.90;;;;;;4880792;29;20080;-40
2023/03/10 01:35:30;;;;;;;5.03;3.05;;;3.60;99.90;;;;;;4880363;29;20029;-41
2023/03/10 01:37:56;;;;;;;3.75;3.08;;;3.60;99.90;;;;;;4880433;29;20033;-44
2023/03/10 01:40:22;;;;;;;4.60;2.80;;;3.60;99.90;;;;;;4881316;29;20036;-42
2023/03/10 01:42:48;;;;;;;4.32;2.78;;;3.60;99.90;;;;;;4880286;29;20501;-35
2023/03/10 01:45:14;;;;;;;4.03;2.88;;;3.70;99.90;;;;;;4880588;29;20021;-35
2023/03/10 01:47:40;;;;;;;3.97;3.22;;;3.70;99.90;;;;;;4881054;29;20036;-41
2023/03/10 01:50:12;;;;;;;3.45;2.80;;;3.60;99.90;;;;;;4881055;29;20128;-40
2023/03/10 01:52:43;;;;;;;6.55;3.45;;;3.50;99.90;;;;;;4881080;29;20542;-42
2023/03/10 01:55:13;;;;;;;4.88;2.80;;;3.60;99.90;;;;;;4880365;29;20081;-42
2023/03/10 01:57:44;;;;;;;5.75;3.15;;;3.60;99.90;;;;;;4880947;29;20506;-41
2023/03/10 02:00:15;;;;;;;9.73;3.30;;;3.60;99.90;;;;;;4880994;29;20574;-40
2023/03/10 02:03:08;;;;;;;4.13;3.17;;;3.70;99.90;;;;;;4880188;29;20124;-40
2023/03/10 02:05:40;;;;;;;5.55;3.55;;;3.60;99.90;;;;;;4879272;29;20494;-41
2023/03/10 02:08:07;;;;;;;6.35;3.50;;;3.60;99.90;;;;;;4879910;29;20051;-42
2023/03/10 02:10:33;;;;;;;5.85;3.83;;;3.60;99.90;;;;;;4880621;29;20112;-39
2023/03/10 02:12:58;;;;;;;6.88;3.53;;;3.70;99.90;;;;;;4879847;29;20471;-41
2023/03/10 02:15:24;;;;;;;5.68;3.13;;;3.70;99.90;;;;;;4878670;29;20025;-40
2023/03/10 02:17:51;;;;;;;5.15;3.42;;;3.60;99.90;;;;;;4880674;29;20032;-41
2023/03/10 02:20:39;;;;;;;4.63;3.13;;;3.60;99.90;;;;;;4880603;29;20435;-43
2023/03/10 02:23:06;;;;;;;5.38;3.15;;;3.60;99.90;;;;;;4879975;29;20043;-42
2023/03/10 02:25:50;;;;;;;5.95;3.75;;;3.60;99.90;;;;;;4864296;29;20017;-40
2023/03/10 02:28:17;;;;;;;4.90;3.50;;;3.50;99.90;;;;;;4880108;29;20546;-41
2023/03/10 02:30:46;;;;;;;4.57;3.22;;;3.50;99.90;;;;;;4862112;29;20025;-42
2023/03/10 02:33:25;;;;;;;4.80;3.35;;;3.60;99.90;;;;;;4876079;29;20682;-41
2023/03/10 02:35:50;;;;;;;3.70;3.28;;;3.60;99.90;;;;;;4867686;29;20022;-41
2023/03/10 02:38:16;;;;;;;4.32;3.38;;;3.60;99.90;;;;;;4878909;29;20367;-41
2023/03/10 02:40:47;;;;;;;5.97;3.92;;;3.60;99.90;;;;;;4880321;29;20148;-42
2023/03/10 02:43:16;;;;;;;6.60;3.35;;;3.60;99.90;;;;;;4879175;29;20040;-34
2023/03/10 02:45:44;;;;;;;4.75;3.25;;;3.60;99.90;;;;;;4878557;29;20033;-36
2023/03/10 02:48:14;;;;;;;4.85;3.17;;;3.60;99.90;;;;;;4879976;29;20084;-34
2023/03/10 02:50:42;;;;;;;5.63;3.90;;;3.60;99.90;;;;;;4880223;29;20048;-37
2023/03/10 02:53:15;;;;;;;5.57;3.58;;;3.60;99.90;;;;;;4878408;29;20591;-38
2023/03/10 02:55:41;;;;;;;6.13;3.92;;;3.60;99.90;;;;;;4879843;29;20037;-34
2023/03/10 02:58:06;;;;;;;5.45;3.13;;;3.60;99.90;;;;;;4879938;29;20545;-40
2023/03/10 03:00:37;;;;;;;4.25;3.20;;;3.70;99.90;;;;;;4879743;29;20478;-40
2023/03/10 03:03:03;;;;;;;6.07;3.30;;;3.70;99.90;;;;;;4878969;29;20028;-35
2023/03/10 03:05:28;;;;;;;5.80;3.67;;;3.60;99.90;;;;;;4879809;29;20538;-40
2023/03/10 03:07:54;;;;;;;5.63;3.80;;;3.60;99.90;;;;;;4878798;29;20025;-36
2023/03/10 03:10:20;;;;;;;5.28;3.53;;;3.50;99.90;;;;;;4878840;29;20061;-34
2023/03/10 03:12:46;;;;;;;5.78;3.72;;;3.60;99.90;;;;;;4878593;29;20593;-35
2023/03/10 03:15:11;;;;;;;6.78;3.58;;;3.60;99.90;;;;;;4879425;29;20021;-37
2023/03/10 03:17:37;;;;;;;4.70;2.75;;;3.60;99.90;;;;;;4862726;29;20025;-36
2023/03/10 03:20:13;;;;;;;5.82;3.63;;;3.60;99.90;;;;;;4878936;29;20025;-33
2023/03/10 03:22:43;;;;;;;6.45;3.38;;;3.50;99.90;;;;;;4878790;29;20415;-39
2023/03/10 03:25:12;;;;;;;5.70;3.33;;;3.50;99.90;;;;;;4879457;29;20039;-36
2023/03/10 03:27:38;;;;;;;5.78;3.15;;;3.50;99.90;;;;;;4892227;29;20035;-35
2023/03/10 03:30:07;;;;;;;6.63;3.58;;;3.60;99.90;;;;;;4882826;29;20033;-37
2023/03/10 03:32:34;;;;;;;6.13;3.60;;;3.60;99.90;;;;;;4878407;29;20032;-35
2023/03/10 03:35:00;;;;;;;5.45;3.50;;;3.60;99.90;;;;;;4879247;29;20056;-35
2023/03/10 03:37:26;;;;;;;6.55;3.80;;;3.60;99.90;;;;;;4878403;29;20029;-38
2023/03/10 03:39:51;;;;;;;4.82;2.92;;;3.60;99.90;;;;;;4878773;29;20032;-41
2023/03/10 03:42:17;;;;;;;6.88;3.78;;;3.70;99.90;;;;;;4877843;29;20029;-43
2023/03/10 03:44:42;;;;;;;4.88;3.38;;;3.60;99.90;;;;;;4879232;29;20037;-42
2023/03/10 03:47:09;;;;;;;5.28;3.75;;;3.60;99.90;;;;;;4875498;29;20486;-39
2023/03/10 03:49:36;;;;;;;4.72;3.45;;;3.60;99.90;;;;;;4876567;29;20044;-38
2023/03/10 03:52:02;;;;;;;5.90;3.75;;;3.50;99.90;;;;;;4878933;29;20054;-33
2023/03/10 03:54:27;;;;;;;5.20;3.22;;;3.60;99.90;;;;;;4878065;29;20482;-38
2023/03/10 03:56:53;;;;;;;6.05;3.40;;;3.60;99.90;;;;;;4878918;29;20165;-40
2023/03/10 03:59:19;;;;;;;4.75;3.10;;;3.50;99.90;;;;;;4878433;29;20040;-40
2023/03/10 04:01:45;;;;;;;5.57;3.35;;;3.50;99.90;;;;;;4879054;29;20441;-41
2023/03/10 04:04:10;;;;;;;5.50;2.88;;;3.40;99.90;;;;;;4878220;29;20037;-40
2023/03/10 04:06:36;;;;;;;5.30;3.17;;;3.50;99.90;;;;;;4879082;29;20029;-42
2023/03/10 04:09:02;;;;;;;5.40;3.33;;;3.50;99.90;;;;;;4878315;29;20448;-41
2023/03/10 04:11:28;;;;;;;5.75;3.63;;;3.50;99.90;;;;;;4878025;29;20029;-34
2023/03/10 04:13:54;;;;;;;5.03;3.08;;;3.50;99.90;;;;;;4878873;29;20501;-35
2023/03/10 04:16:19;;;;;;;4.95;2.83;;;3.50;99.90;;;;;;4878090;29;20033;-38
2023/03/10 04:18:45;;;;;;;4.18;2.83;;;3.50;99.90;;;;;;4877990;29;20494;-34
2023/03/10 04:21:11;;;;;;;4.57;2.65;;;3.50;99.90;;;;;;4879138;29;20554;-33
2023/03/10 04:23:39;;;;;;;6.03;3.75;;;3.40;99.90;;;;;;4877964;29;20116;-37
2023/03/10 04:26:09;;;;;;;2.95;2.28;;;3.40;99.90;;;;;;4878972;29;20060;-39
2023/03/10 04:28:36;;;;;;;5.50;2.60;;;3.50;99.90;;;;;;4881249;29;20061;-34
2023/03/10 04:31:02;;;;;;;3.88;2.33;;;3.40;99.90;;;;;;4882530;29;20041;-36
2023/03/10 04:33:27;;;;;;;6.05;3.03;;;3.40;99.90;;;;;;4882424;29;20040;-37
2023/03/10 04:35:53;;;;;;;2.88;1.95;;;3.50;99.90;;;;;;4882348;29;20483;-35
2023/03/10 04:38:19;;;;;;;7.40;3.28;;;3.40;99.90;;;;;;4881034;29;20458;-37
2023/03/10 04:40:45;;;;;;;3.63;2.38;;;3.40;99.90;;;;;;4882327;29;20029;-34
2023/03/10 04:43:10;;;;;;;4.65;2.80;;;3.50;99.90;;;;;;4887463;29;20029;-37
2023/03/10 04:45:36;;;;;;;5.47;2.70;;;3.40;99.90;;;;;;4881047;29;20021;-38
2023/03/10 04:48:02;;;;;;;5.03;3.08;;;3.40;99.90;;;;;;4878595;29;20041;-36
2023/03/10 04:50:28;;;;;;;4.63;3.33;;;3.40;99.90;;;;;;4881674;29;20021;-35
2023/03/10 04:52:53;;;;;;;4.32;2.83;;;3.40;99.90;;;;;;4879440;29;20036;-35
2023/03/10 04:55:19;;;;;;;5.97;3.35;;;3.40;99.90;;;;;;4880157;29;20025;-36
2023/03/10 04:57:45;;;;;;;4.63;2.85;;;3.30;99.90;;;;;;4881327;29;20025;-37
2023/03/10 05:00:11;;;;;;;5.05;3.25;;;3.30;99.90;;;;;;4881891;29;20030;-37
2023/03/10 05:02:38;;;;;;;6.15;3.38;;;3.30;99.90;;;;;;4864566;29;20057;-34
2023/03/10 05:05:04;;;;;;;5.85;3.45;;;3.30;99.90;;;;;;4881305;29;20435;-36
2023/03/10 05:07:31;;;;;;;4.82;3.13;;;3.30;99.90;;;;;;4880450;29;20498;-35
2023/03/10 05:09:57;;;;;;;5.95;3.25;;;3.30;99.90;;;;;;4881286;29;20497;-38
2023/03/10 05:12:23;;;;;;;4.32;2.95;;;3.30;99.90;;;;;;4882031;29;20100;-34
2023/03/10 05:14:49;;;;;;;5.78;3.30;;;3.30;99.90;;;;;;4881955;29;20021;-39
2023/03/10 05:17:14;;;;;;;7.55;3.85;;;3.30;99.90;;;;;;4880740;29;20029;-36
2023/03/10 05:19:40;;;;;;;6.25;3.53;;;3.20;99.90;;;;;;4880023;29;20021;-38
2023/03/10 05:22:07;;;;;;;7.75;3.80;;;3.20;99.90;;;;;;4880686;29;20043;-34
2023/03/10 05:24:33;;;;;;;6.80;3.05;;;3.20;99.90;;;;;;4881542;29;20040;-38
2023/03/10 05:27:01;;;;;;;8.63;3.22;;;3.20;99.90;;;;;;4874105;29;20387;-35
2023/03/10 05:29:27;;;;;;;6.38;3.45;;;3.20;99.90;;;;;;4881733;29;20042;-36
2023/03/10 05:31:52;;;;;;;6.13;3.17;;;3.20;99.90;;;;;;4880506;29;20495;-38
2023/03/10 05:34:18;;;;;;;7.55;3.55;;;3.20;99.90;;;;;;4881234;29;20566;-35
2023/03/10 05:36:44;;;;;;;7.60;3.75;;;3.20;99.90;;;;;;4881361;29;20100;-37
2023/03/10 05:39:10;;;;;;;7.28;3.35;;;3.30;99.90;;;;;;4878842;29;20037;-33
2023/03/10 05:41:36;;;;;;;7.00;4.10;;;3.30;99.90;;;;;;4881100;29;20025;-38
2023/03/10 05:44:02;;;;;;;6.10;4.00;;;3.30;99.90;;;;;;4881449;29;20037;-36
2023/03/10 05:46:28;;;;;;;6.30;3.42;;;3.30;99.90;;;;;;4881167;29;20108;-40
2023/03/10 05:48:54;;;;;;;5.60;3.20;;;3.30;99.90;;;;;;4880438;29;20033;-42
2023/03/10 05:51:20;;;;;;;7.63;3.17;;;3.40;99.90;;;;;;4883055;29;20036;-42
2023/03/10 05:53:46;;;;;;;9.05;3.92;;;3.40;99.90;;;;;;4883118;29;20033;-40
2023/03/10 05:56:15;;;;;;;7.45;3.40;;;3.30;99.90;;;;;;4880381;29;20559;-41
2023/03/10 05:58:41;;;;;;;10.00;3.85;;;3.30;99.90;;;;;;4879491;29;20036;-41
2023/03/10 06:01:07;;;;;;;8.10;3.63;;;3.30;99.90;;;;;;4879332;29;20105;-40
2023/03/10 06:03:34;;;;;;;6.18;3.22;;;3.40;99.90;;;;;;4879945;29;20033;-42
2023/03/10 06:06:00;;;;;;;9.55;3.50;;;3.40;99.90;;;;;;4879908;29;20108;-41
2023/03/10 06:08:29;;;;;;;6.50;2.80;;;3.30;99.90;;;;;;4878777;29;20047;-38
2023/03/10 06:10:56;;;;;;;8.35;3.53;;;3.40;99.90;;;;;;4878241;29;20029;-40
2023/03/10 06:13:22;;;;;;;7.00;3.42;;;3.40;99.90;;;;;;4851185;29;20507;-42
2023/03/10 06:15:59;;;;;;;8.18;3.53;;;3.40;99.90;;;;;;4880805;29;20443;-42
2023/03/10 06:18:26;;;;;;;4.38;2.83;;;3.50;99.90;;;;;;4859050;29;20037;-41
2023/03/10 06:20:52;;;;;;;6.32;3.20;;;3.40;99.90;;;;;;4880466;29;20033;-40
2023/03/10 06:23:18;;;;;;;6.50;3.50;;;3.40;99.90;;;;;;4879097;29;20037;-34
2023/03/10 06:25:53;;;;;;;7.80;3.53;;;3.40;99.90;;;;;;4878843;29;20029;-36
2023/03/10 06:28:19;;;;;;;7.22;3.97;;;3.40;99.90;;;;;;4878563;29;20486;-37
2023/03/10 06:30:45;;;;;;;6.97;3.92;;;3.40;99.90;;;;;;4880406;29;20040;-38
2023/03/10 06:33:10;;;;;;;7.38;3.78;;;3.40;99.90;;;;;;4878685;29;20033;-35
2023/03/10 06:35:36;;;;;;;7.95;3.97;;;3.40;99.90;;;;;;4875805;29;20029;-34
2023/03/10 06:38:01;;;;;;;7.10;3.55;;;3.40;99.90;;;;;;4879324;29;20029;-38
2023/03/10 06:40:27;;;;;;;8.18;3.10;;;3.30;99.90;;;;;;4880161;29;20033;-38
2023/03/10 06:42:53;;;;;;;7.28;3.47;;;3.30;99.90;;;;;;4879332;29;20427;-41
2023/03/10 06:45:18;;;;;;;5.43;2.83;;;3.40;99.90;;;;;;4878177;29;20449;-42
2023/03/10 06:47:44;;;;;;;6.93;3.38;;;3.30;99.90;;;;;;4880096;29;20025;-42
2023/03/10 06:50:10;;;;;;;7.60;3.60;;;3.30;99.90;;;;;;4879777;29;20029;-42
2023/03/10 06:52:36;;;;;;;5.53;2.80;;;3.40;99.90;;;;;;4878977;29;20561;-42
2023/03/10 06:55:02;;;;;;;7.30;2.72;;;3.50;99.90;;;;;;4879943;29;20028;-41
2023/03/10 06:57:28;;;;;;;7.40;3.08;;;3.50;99.90;;;;;;4877838;29;20041;-41
2023/03/10 06:59:54;;;;;;;3.80;2.58;;;3.40;99.90;;;;;;4882190;29;20025;-40
2023/03/10 07:02:20;;;;;;;5.22;2.90;;;3.40;99.90;;;;;;4880142;29;20063;-41
2023/03/10 07:04:45;;;;;;;5.95;2.65;;;3.50;99.90;;;;;;4880028;29;20037;-37
2023/03/10 07:07:12;;;;;;;4.70;2.35;;;3.50;99.90;;;;;;4878768;29;20512;-36
2023/03/10 07:09:38;;;;;;;4.53;2.80;;;3.50;99.90;;;;;;4879082;29;20025;-36
2023/03/10 07:12:04;;;;;;;6.70;2.95;;;3.50;99.90;;;;;;4878628;29;20048;-35
2023/03/10 07:14:29;;;;;;;4.82;3.28;;;3.50;99.90;;;;;;4862916;29;20039;-43
2023/03/10 07:16:55;;;;;;;4.78;2.83;;;3.50;99.90;;;;;;4877313;29;20033;-42
2023/03/10 07:19:21;;;;;;;5.55;2.63;;;3.60;99.90;;;;;;4863186;29;20037;-36
2023/03/10 07:21:47;;;;;;;3.90;2.67;;;3.60;99.90;;;;;;4878854;29;20040;-35
2023/03/10 07:24:13;;;;;;;3.45;2.58;;;3.60;99.90;;;;;;4878496;29;20041;-36
2023/03/10 07:26:38;;;;;;;4.97;3.00;;;3.70;99.90;;;;;;4878786;29;20474;-36
2023/03/10 07:29:04;;;;;;;3.55;2.28;;;3.70;99.90;;;;;;4879290;29;20039;-31
2023/03/10 07:31:30;;;;;;;5.38;2.40;;;3.70;99.90;;;;;;4879357;29;20032;-35
2023/03/10 07:33:55;;;;;;;8.13;2.40;;;3.70;99.90;;;;;;4878226;29;20033;-33
2023/03/10 07:36:22;;;;;;;3.22;2.33;;;3.70;99.90;;;;;;4876965;29;20033;-31
2023/03/10 07:38:47;;;;;;;2.58;2.30;;;3.60;99.90;;;;;;4857758;29;20108;-37
2023/03/10 07:41:19;;;;;;;3.35;2.38;;;3.70;99.90;;;;;;4879454;29;20057;-36
2023/03/10 07:43:45;;;;;;;7.43;2.33;;;3.60;99.90;;;;;;4876158;29;20076;-34
2023/03/10 07:46:13;;;;;;;4.28;2.33;;;3.60;99.90;;;;;;4876982;29;20384;-36
2023/03/10 07:48:39;;;;;;;3.90;2.10;;;3.70;99.90;;;;;;4879113;29;20518;-40
2023/03/10 07:51:05;;;;;;;3.42;1.92;;;3.70;99.90;;;;;;4878543;29;20066;-32
2023/03/10 07:53:32;;;;;;;5.85;2.05;;;3.70;99.90;;;;;;4877567;29;20439;-37
2023/03/10 07:55:57;;;;;;;2.70;2.08;;;3.70;99.90;;;;;;4878901;29;20112;-34
2023/03/10 07:58:23;;;;;;;2.97;2.10;;;3.60;99.90;;;;;;4885556;29;20040;-41
2023/03/10 08:00:56;;;;;;;2.17;1.60;;;3.70;99.90;;;;;;4892328;29;20021;-47
2023/03/10 08:03:22;;;;;;;2.53;1.70;;;3.70;99.90;;;;;;4879739;29;20037;-40
2023/03/10 08:05:48;;;;;;;1.80;1.40;;;3.70;99.90;;;;;;4884357;29;20037;-38
2023/03/10 08:08:13;;;;;;;7.78;2.03;;;3.80;99.90;;;;;;4884132;29;20405;-34
2023/03/10 08:10:39;;;;;;;3.70;1.73;;;3.70;99.90;;;;;;4885199;29;20025;-33
2023/03/10 08:13:05;;;;;;;6.18;1.60;;;3.70;99.90;;;;;;4885138;29;20088;-35
2023/03/10 08:15:31;;;;;;;2.78;1.40;;;3.60;99.90;;;;;;4885202;29;20021;-41
2023/03/10 08:17:57;;;;;;;1.38;1.15;;;3.60;99.90;;;;;;4884157;29;20025;-40
2023/03/10 08:20:23;;;;;;;2.47;1.45;;;3.70;99.90;;;;;;4884639;29;20067;-42
2023/03/10 08:22:48;;;;;;;2.47;1.80;;;3.70;99.90;;;;;;4884232;29;20032;-40
2023/03/10 08:25:14;;;;;;;2.42;1.30;;;3.70;99.90;;;;;;4883242;29;20065;-40
2023/03/10 08:27:40;;;;;;;3.00;2.08;;;3.70;99.90;;;;;;4881744;29;20025;-43
2023/03/10 08:30:07;;;;;;;6.93;2.05;;;3.70;99.90;;;;;;4885242;29;20032;-41
2023/03/10 08:32:32;;;;;;;2.25;1.67;;;3.80;99.90;;;;;;4884975;29;20844;-42
2023/03/10 08:34:58;;;;;;;1.95;1.30;;;3.80;99.90;;;;;;4865102;29;20117;-40
2023/03/10 08:37:23;;;;;;;2.65;1.85;;;3.90;99.90;;;;;;4878654;29;20040;-42
2023/03/10 08:39:52;;;;;;;6.55;1.83;;;3.80;99.90;;;;;;4884986;29;20033;-40
2023/03/10 08:42:17;;;;;;;2.13;1.58;;;3.80;99.90;;;;;;4884829;29;20379;-41
2023/03/10 08:44:43;;;;;;;3.25;1.73;;;3.90;99.90;;;;;;4884693;29;20064;-41
2023/03/10 08:47:09;;;;;;;1.92;1.45;;;3.90;99.90;;;;;;4884916;29;20085;-39
2023/03/10 08:49:35;;;;;;;2.53;1.95;;;3.80;99.90;;;;;;4884897;29;20072;-42
2023/03/10 08:52:01;;;;;;;2.30;1.55;;;3.90;99.90;;;;;;4884264;29;20037;-44
2023/03/10 08:54:27;;;;;;;2.45;1.63;;;4.00;99.90;;;;;;4882917;29;20025;-44
2023/03/10 08:56:53;;;;;;;1.83;1.50;;;4.00;99.90;;;;;;4884560;29;20569;-43
2023/03/10 08:59:19;;;;;;;2.88;1.60;;;4.00;99.90;;;;;;4884779;29;20100;-41
2023/03/10 09:01:46;;;;;;;2.78;2.08;;;4.00;99.90;;;;;;4884654;29;20037;-42
2023/03/10 09:04:12;;;;;;;2.80;2.03;;;3.90;99.90;;;;;;4884746;29;20033;-34
2023/03/10 09:06:38;;;;;;;3.65;1.90;;;3.80;99.90;;;;;;4884684;29;20390;-37
2023/03/10 09:09:06;;;;;;;2.05;1.60;;;3.80;99.90;;;;;;4871073;29;20551;-34
2023/03/10 09:11:33;;;;;;;;;;;3.80;99.90;;;;;;4866527;29;20089;-41
2023/03/10 09:14:00;;;;;;;2.35;1.50;;;3.80;99.90;;;;;;4880667;29;19963;-41
2023/03/10 09:16:27;;;;;;;2.47;1.50;;;3.70;99.90;;;;;;4881894;29;20505;-41
2023/03/10 09:18:54;;;;;;;2.83;1.63;;;3.70;99.90;;;;;;4880299;29;20432;-41
2023/03/10 09:21:20;;;;;;;4.47;2.20;;;3.70;99.90;;;;;;4881377;29;20363;-40
2023/03/10 09:23:47;;;;;;;2.55;1.42;;;3.70;99.90;;;;;;4877708;29;20048;-41
2023/03/10 09:26:13;;;;;;;2.27;1.60;;;3.70;99.90;;;;;;4877285;29;20057;-42
2023/03/10 09:28:40;;;;;;;3.17;1.42;;;3.60;99.90;;;;;;4878069;29;20037;-37
2023/03/10 09:31:07;;;;;;;2.23;1.30;;;3.70;99.90;;;;;;4879152;29;20088;-37
2023/03/10 09:33:33;;;;;;;2.47;1.40;;;3.80;99.90;;;;;;4863804;29;20549;-43
2023/03/10 09:36:01;;;;;;;2.70;1.40;;;3.80;99.90;;;;;;4878394;29;20041;-42
2023/03/10 09:38:30;;;;;;;;;;;3.70;99.90;;;;;;4879899;29;20048;-39
2023/03/10 09:41:25;;;;;;;3.38;1.55;;;3.80;99.90;;;;;;4880238;29;19912;-41
2023/03/10 09:44:06;;;;;;;3.85;1.80;;;3.80;99.90;;;;;;4881279;29;20518;-35
2023/03/10 09:47:07;;;;;;;1.70;1.33;;;3.70;99.90;;;;;;4879565;29;20513;-40
2023/03/10 09:49:46;;;;;;;1.55;1.40;;;3.60;99.90;;;;;;4784881;29;20114;-36
2023/03/10 09:52:18;;;;;;;2.38;1.50;;;3.60;99.90;;;;;;4868697;29;20041;-32
2023/03/10 09:54:53;;;;;;;1.35;1.23;;;3.60;99.90;;;;;;4878777;29;20033;-41
2023/03/10 09:57:21;;;;;;;7.78;1.52;;;3.60;99.90;;;;;;4879764;29;20080;-43
2023/03/10 09:59:50;;;;;;;3.65;1.40;;;3.60;99.90;;;;;;4869333;29;20041;-37
2023/03/10 10:02:36;;;;;;;2.65;1.55;;;3.70;99.90;;;;;;4864272;29;20024;-34
2023/03/10 10:05:11;;;;;;;1.17;1.00;;;3.70;99.90;;;;;;4862278;29;20025;-39
2023/03/10 10:07:51;;;;;;;1.02;0.90;;;3.70;99.90;;;;;;4880138;29;20141;-35
2023/03/10 10:10:23;;;;;;;1.83;1.17;;;3.60;99.90;;;;;;4878116;29;20041;-34
2023/03/10 10:12:51;;;;;;;1.40;0.95;;;3.60;99.90;;;;;;4878882;29;20112;-35
2023/03/10 10:15:26;;;;;;;1.60;1.08;;;3.60;99.90;;;;;;4878721;29;20025;-41
2023/03/10 10:18:07;;;;;;;1.40;1.30;;;3.50;99.90;;;;;;4862501;29;20053;-40
2023/03/10 10:21:01;;;;;;;2.13;0.80;;;3.50;99.90;;;;;;4862149;29;20049;-40
2023/03/10 10:23:58;;;;;;;1.38;0.98;;;3.50;99.90;;;;;;4875964;29;20033;-39
2023/03/10 10:26:25;;;;;;;2.28;1.20;;;3.50;99.90;;;;;;4866689;29;20045;-41
2023/03/10 10:28:59;;;;;;;1.50;0.80;;;3.60;99.90;;;;;;4878357;29;20028;-40
2023/03/10 10:31:27;;;;;;;1.10;0.90;;;3.60;99.90;;;;;;4867421;29;20037;-40
2023/03/10 10:33:55;;;;;;;1.17;0.73;;;3.50;99.90;;;;;;4878835;29;20037;-39
2023/03/10 10:36:23;;;;;;;1.33;0.95;;;3.50;99.90;;;;;;4880448;29;20081;-40
2023/03/10 10:38:51;;;;;;;1.00;0.80;;;3.50;99.90;;;;;;4880291;29;20538;-40
2023/03/10 10:41:20;;;;;;;1.10;0.80;;;3.40;99.90;;;;;;4880297;29;20072;-39
2023/03/10 10:43:46;;;;;;;1.42;1.33;;;3.40;99.90;;;;;;4877805;29;20040;-42
2023/03/10 10:46:14;;;;;;;1.10;0.73;;;3.40;99.90;;;;;;4879971;29;20036;-41
2023/03/10 10:48:44;;;;;;;1.33;1.05;;;3.40;99.90;;;;;;4879979;29;20032;-41
2023/03/10 10:51:34;;;;;;;0.70;0.70;;;3.40;99.90;;;;;;4879382;29;20029;-40
2023/03/10 10:54:27;;;;;;;1.33;0.80;;;3.30;99.90;;;;;;4878528;29;20064;-40
2023/03/10 10:56:55;;;;;;;1.45;0.82;;;3.40;99.90;;;;;;4878664;29;20391;-39
2023/03/10 10:59:26;;;;;;;1.67;1.10;;;3.40;99.90;;;;;;4879332;29;20513;-39
2023/03/10 11:02:13;;;;;;;1.75;1.05;;;3.40;99.90;;;;;;4879918;29;20482;-42
2023/03/10 11:04:45;;;;;;;1.23;0.97;;;3.40;99.90;;;;;;4878670;29;20033;-39
2023/03/10 11:07:25;;;;;;;4.05;0.80;;;3.50;99.90;;;;;;4878965;29;20081;-40
2023/03/10 11:09:52;;;;;;;2.13;1.10;;;3.60;99.90;;;;;;4880010;29;20389;-40
2023/03/10 11:12:24;;;;;;;2.03;1.40;;;3.50;99.90;;;;;;4879922;29;20506;-41
2023/03/10 11:15:19;;;;;;;2.95;1.10;;;3.50;99.90;;;;;;4879617;29;20029;-40
2023/03/10 11:17:53;;;;;;;3.75;1.00;;;3.50;99.90;;;;;;4845391;29;20049;-40
2023/03/10 11:20:31;;;;;;;1.50;0.85;;;3.50;99.90;;;;;;4879740;29;20025;-41
2023/03/10 11:23:06;;;;;;;3.00;1.48;;;3.50;99.90;;;;;;4874178;29;20043;-42
2023/03/10 11:25:39;;;;;;;2.50;1.38;;;3.50;99.90;;;;;;4878630;29;20109;-42
2023/03/10 11:28:26;;;;;;;1.67;1.10;;;3.50;99.90;;;;;;4879421;29;20097;-40
2023/03/10 11:31:17;;;;;;;1.65;1.27;;;3.50;99.90;;;;;;4879465;29;20028;-42
2023/03/10 11:34:07;;;;;;;3.33;1.98;;;3.50;99.90;;;;;;4879146;29;20036;-37
2023/03/10 11:36:46;;;;;;;3.97;1.50;;;3.50;99.90;;;;;;4866904;29;20032;-40
2023/03/10 11:39:37;;;;;;;4.20;1.90;;;3.60;99.90;;;;;;4879458;29;20025;-42
2023/03/10 11:42:21;;;;;;;4.50;2.33;;;3.60;99.90;;;;;;4874806;29;20029;-40
2023/03/10 11:45:01;;;;;;;4.88;1.98;;;3.60;99.90;;;;;;4878341;29;20502;-43
2023/03/10 11:47:47;;;;;;;2.10;1.35;;;3.70;99.90;;;;;;4878872;29;20033;-41
2023/03/10 11:50:41;;;;;;;1.83;1.50;;;3.60;99.90;;;;;;4878889;29;20060;-41
2023/03/10 11:53:30;;;;;;;4.82;1.77;;;3.60;99.90;;;;;;4879309;29;20486;-43
2023/03/10 11:55:58;;;;;;;1.92;1.60;;;3.40;99.90;;;;;;4879215;29;20375;-39
2023/03/10 11:58:28;;;;;;;;;;;3.30;99.90;;;;;;4878605;29;20049;-39
2023/03/10 12:00:54;;;;;;;2.03;1.33;;;3.30;99.90;;;;;;4879145;29;19959;-39
2023/03/10 12:03:48;;;;;;;2.78;1.85;;;3.40;99.90;;;;;;4879329;29;20028;-34
2023/03/10 12:06:31;;;;;;;1.27;1.17;;;3.30;99.90;;;;;;4878035;29;20081;-34
2023/03/10 12:08:59;;;;;;;3.05;1.73;;;3.30;99.90;;;;;;4878990;29;20036;-37
2023/03/10 12:11:26;;;;;;;2.42;1.60;;;3.30;99.90;;;;;;4878982;29;20040;-35
2023/03/10 12:13:57;;;;;;;3.53;1.80;;;3.30;99.90;;;;;;4878910;29;20443;-36
2023/03/10 12:16:26;;;;;;;4.35;2.17;;;3.40;99.90;;;;;;4878567;29;20017;-36
2023/03/10 12:18:53;;;;;;;4.38;1.65;;;3.40;99.90;;;;;;4879166;29;20029;-35
2023/03/10 12:21:27;;;;;;;3.70;1.98;;;3.40;99.90;;;;;;4877567;29;20435;-39
2023/03/10 12:23:55;;;;;;;4.07;2.13;;;3.30;99.90;;;;;;4878332;29;20501;-36
2023/03/10 12:26:43;;;;;;;3.53;1.75;;;3.30;99.90;;;;;;4861971;29;20053;-36
2023/03/10 12:29:23;;;;;;;2.20;1.60;;;3.30;99.90;;;;;;4865554;29;20040;-34
2023/03/10 12:31:54;;;;;;;3.33;2.22;;;3.30;99.90;;;;;;4864564;29;20112;-35
2023/03/10 12:34:23;;;;;;;3.33;2.22;;;3.30;99.90;;;;;;4879015;29;20066;-41
2023/03/10 12:37:05;;;;;;;2.78;1.75;;;3.30;99.90;;;;;;4879038;29;20026;-40
2023/03/10 12:39:38;;;;;;;3.70;2.17;;;3.20;99.90;;;;;;4878125;29;20064;-35
2023/03/10 12:42:27;;;;;;;4.20;2.25;;;3.20;99.90;;;;;;4869474;29;20044;-34
2023/03/10 12:45:37;;;;;;;4.28;2.65;;;3.30;99.90;;;;;;4879052;29;20033;-38
2023/03/10 12:48:10;;;;;;;4.75;2.70;;;3.40;99.90;;;;;;4849753;29;20414;-34
2023/03/10 12:50:54;;;;;;;4.97;2.38;;;3.40;99.90;;;;;;4881265;29;20029;-36
2023/03/10 12:53:32;;;;;;;3.80;2.15;;;3.30;99.90;;;;;;4882093;29;20029;-36
2023/03/10 12:56:12;;;;;;;4.72;2.55;;;3.30;99.90;;;;;;4882178;29;20392;-34
2023/03/10 12:58:43;;;;;;;7.20;2.30;;;3.30;99.90;;;;;;4890230;29;20049;-35
2023/03/10 13:01:15;;;;;;;5.75;2.67;;;3.30;99.90;;;;;;4892242;29;20032;-36
2023/03/10 13:03:51;;;;;;;4.38;2.45;;;3.30;99.90;;;;;;4881717;29;20108;-36
2023/03/10 13:06:36;;;;;;;4.65;2.25;;;3.20;99.90;;;;;;4881201;29;20029;-35
2023/03/10 13:09:16;;;;;;;3.90;2.38;;;3.20;99.90;;;;;;4862974;29;20043;-37
2023/03/10 13:11:49;;;;;;;3.95;2.38;;;3.10;99.90;;;;;;4878666;29;20057;-36